sensor_id;sensor_type;location;lat;lon;timestamp;temperature;humidity
29813;DHT22;16707;48.106;11.548;2022-11-20T00:01:44;6.10;99.90
29813;DHT22;16707;48.106;11.548;2022-11-20T00:04:14;6.20;99.90
29813;DHT22;16707;48.106;11.548;2022-11-20T00:06:43;6.30;99.90
29813;DHT22;16707;48.106;11.548;2022-11-20T00:09:16;6.30;99.90
29813;DHT22;16707;48.106;11.548;2022-11-20T00:11:43;6.40;99.90
29813;DHT22;16707;48.106;11.548;2022-11-20T00:14:09;6.30;99.90
29813;DHT22;16707;48.106;11.548;2022-11-20T00:16:37;6.30;99.90
29813;DHT22;16707;48.106;11.548;2022-11-20T00:19:04;6.30;99.90
29813;DHT22;16707;48.106;11.548;2022-11-20T00:21:40;6.40;99.90
29813;DHT22;16707;48.106;11.548;2022-11-20T00:24:09;6.30;99.90
29813;DHT22;16707;48.106;11.548;2022-11-20T00:26:40;6.40;99.90
29813;DHT22;16707;48.106;11.548;2022-11-20T00:29:09;6.40;99.90
29813;DHT22;16707;48.106;11.548;2022-11-20T00:31:36;6.40;99.90
29813;DHT22;16707;48.106;11.548;2022-11-20T00:34:14;6.40;99.90
29813;DHT22;16707;48.106;11.548;2022-11-20T00:36:44;6.40;99.90
29813;DHT22;16707;48.106;11.548;2022-11-20T00:39:14;6.40;99.90
29813;DHT22;16707;48.106;11.548;2022-11-20T00:41:49;6.50;99.90
29813;DHT22;16707;48.106;11.548;2022-11-20T00:44:18;6.50;99.90
29813;DHT22;16707;48.106;11.548;2022-11-20T00:46:48;6.50;99.90
29813;DHT22;16707;48.106;11.548;2022-11-20T00:49:18;6.50;99.90
29813;DHT22;16707;48.106;11.548;2022-11-20T00:52:03;6.50;99.90
29813;DHT22;16707;48.106;11.548;2022-11-20T00:54:31;6.50;99.90
29813;DHT22;16707;48.106;11.548;2022-11-20T00:57:04;6.50;99.90
29813;DHT22;16707;48.106;11.548;2022-11-20T00:59:34;6.50;99.90
29813;DHT22;16707;48.106;11.548;2022-11-20T01:02:04;6.50;99.90
29813;DHT22;16707;48.106;11.548;2022-11-20T01:04:31;6.60;99.90
29813;DHT22;16707;48.106;11.548;2022-11-20T01:07:06;6.60;99.90
29813;DHT22;16707;48.106;11.548;2022-11-20T01:09:40;6.50;99.90
29813;DHT22;16707;48.106;11.548;2022-11-20T01:12:11;6.60;99.90
29813;DHT22;16707;48.106;11.548;2022-11-20T01:14:38;6.60;99.90
29813;DHT22;16707;48.106;11.548;2022-11-20T01:17:11;6.50;99.90
29813;DHT22;16707;48.106;11.548;2022-11-20T01:19:44;6.50;99.90
29813;DHT22;16707;48.106;11.548;2022-11-20T01:22:13;6.60;99.90
29813;DHT22;16707;48.106;11.548;2022-11-20T01:24:40;6.50;99.90
29813;DHT22;16707;48.106;11.548;2022-11-20T01:27:07;6.60;99.90
29813;DHT22;16707;48.106;11.548;2022-11-20T01:29:35;6.60;99.90
29813;DHT22;16707;48.106;11.548;2022-11-20T01:32:02;6.60;99.90
29813;DHT22;16707;48.106;11.548;2022-11-20T01:34:30;6.60;99.90
29813;DHT22;16707;48.106;11.548;2022-11-20T01:37:06;6.60;99.90
29813;DHT22;16707;48.106;11.548;2022-11-20T01:39:33;6.60;99.90
29813;DHT22;16707;48.106;11.548;2022-11-20T01:42:00;6.60;99.90
29813;DHT22;16707;48.106;11.548;2022-11-20T01:44:53;6.60;99.90
29813;DHT22;16707;48.106;11.548;2022-11-20T01:47:29;6.60;99.90
29813;DHT22;16707;48.106;11.548;2022-11-20T01:50:13;6.60;99.90
29813;DHT22;16707;48.106;11.548;2022-11-20T01:52:44;6.60;99.90
29813;DHT22;16707;48.106;11.548;2022-11-20T01:55:22;6.60;99.90
29813;DHT22;16707;48.106;11.548;2022-11-20T01:57:50;6.60;99.90
29813;DHT22;16707;48.106;11.548;2022-11-20T02:00:23;6.50;99.90
29813;DHT22;16707;48.106;11.548;2022-11-20T02:02:55;6.50;99.90
29813;DHT22;16707;48.106;11.548;2022-11-20T02:05:30;6.50;99.90
29813;DHT22;16707;48.106;11.548;2022-11-20T02:08:01;6.50;99.90
29813;DHT22;16707;48.106;11.548;2022-11-20T02:10:33;6.50;99.90
29813;DHT22;16707;48.106;11.548;2022-11-20T02:13:07;6.40;99.90
29813;DHT22;16707;48.106;11.548;2022-11-20T02:16:10;6.40;99.90
29813;DHT22;16707;48.106;11.548;2022-11-20T02:18:50;6.40;99.90
29813;DHT22;16707;48.106;11.548;2022-11-20T02:21:29;6.40;99.90
29813;DHT22;16707;48.106;11.548;2022-11-20T02:24:03;6.40;99.90
29813;DHT22;16707;48.106;11.548;2022-11-20T02:26:43;6.30;99.90
29813;DHT22;16707;48.106;11.548;2022-11-20T02:29:16;6.30;99.90
29813;DHT22;16707;48.106;11.548;2022-11-20T02:31:50;6.40;99.90
29813;DHT22;16707;48.106;11.548;2022-11-20T02:34:36;6.30;99.90
29813;DHT22;16707;48.106;11.548;2022-11-20T02:37:11;6.20;99.90
29813;DHT22;16707;48.106;11.548;2022-11-20T02:39:43;6.20;99.90
29813;DHT22;16707;48.106;11.548;2022-11-20T02:42:16;6.20;99.90
29813;DHT22;16707;48.106;11.548;2022-11-20T02:44:56;6.20;99.90
29813;DHT22;16707;48.106;11.548;2022-11-20T02:47:34;6.20;99.90
29813;DHT22;16707;48.106;11.548;2022-11-20T02:50:08;6.20;99.90
29813;DHT22;16707;48.106;11.548;2022-11-20T02:52:35;6.20;99.90
29813;DHT22;16707;48.106;11.548;2022-11-20T02:55:10;6.20;99.90
29813;DHT22;16707;48.106;11.548;2022-11-20T02:57:41;6.20;99.90
29813;DHT22;16707;48.106;11.548;2022-11-20T03:00:12;6.20;99.90
29813;DHT22;16707;48.106;11.548;2022-11-20T03:02:46;6.20;99.90
29813;DHT22;16707;48.106;11.548;2022-11-20T03:05:19;6.20;99.90
29813;DHT22;16707;48.106;11.548;2022-11-20T03:07:48;6.20;99.90
29813;DHT22;16707;48.106;11.548;2022-11-20T03:10:23;6.20;99.90
29813;DHT22;16707;48.106;11.548;2022-11-20T03:13:01;6.20;99.90
29813;DHT22;16707;48.106;11.548;2022-11-20T03:15:30;6.20;99.90
29813;DHT22;16707;48.106;11.548;2022-11-20T03:17:57;6.30;99.90
29813;DHT22;16707;48.106;11.548;2022-11-20T03:20:24;6.30;99.90
29813;DHT22;16707;48.106;11.548;2022-11-20T03:22:56;6.30;99.90
29813;DHT22;16707;48.106;11.548;2022-11-20T03:25:29;6.40;99.90
29813;DHT22;16707;48.106;11.548;2022-11-20T03:28:06;6.30;99.90
29813;DHT22;16707;48.106;11.548;2022-11-20T03:30:36;6.30;99.90
29813;DHT22;16707;48.106;11.548;2022-11-20T03:33:08;6.30;99.90
29813;DHT22;16707;48.106;11.548;2022-11-20T03:35:43;6.30;99.90
29813;DHT22;16707;48.106;11.548;2022-11-20T03:38:14;6.30;99.90
29813;DHT22;16707;48.106;11.548;2022-11-20T03:40:57;6.30;99.90
29813;DHT22;16707;48.106;11.548;2022-11-20T03:43:30;6.30;99.90
29813;DHT22;16707;48.106;11.548;2022-11-20T03:46:03;6.20;99.90
29813;DHT22;16707;48.106;11.548;2022-11-20T03:48:32;6.30;99.90
29813;DHT22;16707;48.106;11.548;2022-11-20T03:51:16;6.30;99.90
29813;DHT22;16707;48.106;11.548;2022-11-20T03:53:44;6.20;99.90
29813;DHT22;16707;48.106;11.548;2022-11-20T03:56:17;6.30;99.90
29813;DHT22;16707;48.106;11.548;2022-11-20T03:58:45;6.30;99.90
29813;DHT22;16707;48.106;11.548;2022-11-20T04:01:14;6.20;99.90
29813;DHT22;16707;48.106;11.548;2022-11-20T04:03:46;6.20;99.90
29813;DHT22;16707;48.106;11.548;2022-11-20T04:06:23;6.20;99.90
29813;DHT22;16707;48.106;11.548;2022-11-20T04:09:10;6.30;99.90
29813;DHT22;16707;48.106;11.548;2022-11-20T04:11:40;6.20;99.90
29813;DHT22;16707;48.106;11.548;2022-11-20T04:14:13;6.20;99.90
29813;DHT22;16707;48.106;11.548;2022-11-20T04:16:41;6.20;99.90
29813;DHT22;16707;48.106;11.548;2022-11-20T04:19:14;6.20;99.90
29813;DHT22;16707;48.106;11.548;2022-11-20T04:21:47;6.20;99.90
29813;DHT22;16707;48.106;11.548;2022-11-20T04:24:14;6.20;99.90
29813;DHT22;16707;48.106;11.548;2022-11-20T04:26:43;6.20;99.90
29813;DHT22;16707;48.106;11.548;2022-11-20T04:29:11;6.20;99.90
29813;DHT22;16707;48.106;11.548;2022-11-20T04:31:38;6.20;99.90
29813;DHT22;16707;48.106;11.548;2022-11-20T04:34:11;6.10;99.90
29813;DHT22;16707;48.106;11.548;2022-11-20T04:36:41;6.10;99.90
29813;DHT22;16707;48.106;11.548;2022-11-20T04:39:13;6.10;99.90
29813;DHT22;16707;48.106;11.548;2022-11-20T04:41:44;6.10;99.90
29813;DHT22;16707;48.106;11.548;2022-11-20T04:44:14;6.10;99.90
29813;DHT22;16707;48.106;11.548;2022-11-20T04:46:47;6.10;99.90
29813;DHT22;16707;48.106;11.548;2022-11-20T04:49:17;6.10;99.90
29813;DHT22;16707;48.106;11.548;2022-11-20T04:51:58;6.10;99.90
29813;DHT22;16707;48.106;11.548;2022-11-20T04:56:55;6.10;99.90
29813;DHT22;16707;48.106;11.548;2022-11-20T04:59:24;6.10;99.90
29813;DHT22;16707;48.106;11.548;2022-11-20T05:01:54;6.10;99.90
29813;DHT22;16707;48.106;11.548;2022-11-20T05:04:27;6.20;99.90
29813;DHT22;16707;48.106;11.548;2022-11-20T05:06:59;6.10;99.90
29813;DHT22;16707;48.106;11.548;2022-11-20T05:09:37;6.20;99.90
29813;DHT22;16707;48.106;11.548;2022-11-20T05:12:09;6.20;99.90
29813;DHT22;16707;48.106;11.548;2022-11-20T05:14:36;6.20;99.90
29813;DHT22;16707;48.106;11.548;2022-11-20T05:17:03;6.20;99.90
29813;DHT22;16707;48.106;11.548;2022-11-20T05:19:35;6.20;99.90
29813;DHT22;16707;48.106;11.548;2022-11-20T05:22:02;6.20;99.90
29813;DHT22;16707;48.106;11.548;2022-11-20T05:24:32;6.20;99.90
29813;DHT22;16707;48.106;11.548;2022-11-20T05:26:59;6.20;99.90
29813;DHT22;16707;48.106;11.548;2022-11-20T05:29:27;6.20;99.90
29813;DHT22;16707;48.106;11.548;2022-11-20T05:32:00;6.10;99.90
29813;DHT22;16707;48.106;11.548;2022-11-20T05:34:27;6.10;99.90
29813;DHT22;16707;48.106;11.548;2022-11-20T05:36:57;6.10;99.90
29813;DHT22;16707;48.106;11.548;2022-11-20T05:39:29;6.10;99.90
29813;DHT22;16707;48.106;11.548;2022-11-20T05:42:10;6.10;99.90
29813;DHT22;16707;48.106;11.548;2022-11-20T05:45:08;6.00;99.90
29813;DHT22;16707;48.106;11.548;2022-11-20T05:47:35;6.10;99.90
29813;DHT22;16707;48.106;11.548;2022-11-20T05:50:02;6.10;99.90
29813;DHT22;16707;48.106;11.548;2022-11-20T05:52:32;6.10;99.90
29813;DHT22;16707;48.106;11.548;2022-11-20T05:54:59;6.00;99.90
29813;DHT22;16707;48.106;11.548;2022-11-20T05:57:34;6.00;99.90
29813;DHT22;16707;48.106;11.548;2022-11-20T06:00:01;6.00;99.90
29813;DHT22;16707;48.106;11.548;2022-11-20T06:02:29;6.00;99.90
29813;DHT22;16707;48.106;11.548;2022-11-20T06:05:03;6.00;99.90
29813;DHT22;16707;48.106;11.548;2022-11-20T06:07:35;6.00;99.90
29813;DHT22;16707;48.106;11.548;2022-11-20T06:10:02;6.00;99.90
29813;DHT22;16707;48.106;11.548;2022-11-20T06:12:31;6.00;99.90
29813;DHT22;16707;48.106;11.548;2022-11-20T06:14:58;5.90;99.90
29813;DHT22;16707;48.106;11.548;2022-11-20T06:17:30;5.90;99.90
29813;DHT22;16707;48.106;11.548;2022-11-20T06:20:00;5.80;99.90
29813;DHT22;16707;48.106;11.548;2022-11-20T06:22:27;5.70;99.90
29813;DHT22;16707;48.106;11.548;2022-11-20T06:24:54;5.60;99.90
29813;DHT22;16707;48.106;11.548;2022-11-20T06:27:21;5.50;99.90
29813;DHT22;16707;48.106;11.548;2022-11-20T06:29:48;5.40;99.90
29813;DHT22;16707;48.106;11.548;2022-11-20T06:32:15;5.30;99.90
29813;DHT22;16707;48.106;11.548;2022-11-20T06:34:43;5.20;99.90
29813;DHT22;16707;48.106;11.548;2022-11-20T06:37:10;5.10;99.90
29813;DHT22;16707;48.106;11.548;2022-11-20T06:39:40;5.10;99.90
29813;DHT22;16707;48.106;11.548;2022-11-20T06:42:09;5.10;99.90
29813;DHT22;16707;48.106;11.548;2022-11-20T06:44:36;5.20;99.90
29813;DHT22;16707;48.106;11.548;2022-11-20T06:47:11;5.20;99.90
29813;DHT22;16707;48.106;11.548;2022-11-20T06:49:38;5.30;99.90
29813;DHT22;16707;48.106;11.548;2022-11-20T06:52:07;5.40;99.90
29813;DHT22;16707;48.106;11.548;2022-11-20T06:54:37;5.50;99.90
29813;DHT22;16707;48.106;11.548;2022-11-20T06:57:07;5.50;99.90
29813;DHT22;16707;48.106;11.548;2022-11-20T06:59:35;5.60;99.90
29813;DHT22;16707;48.106;11.548;2022-11-20T07:02:03;5.70;99.90
29813;DHT22;16707;48.106;11.548;2022-11-20T07:04:33;5.90;99.90
29813;DHT22;16707;48.106;11.548;2022-11-20T07:07:00;6.00;99.90
29813;DHT22;16707;48.106;11.548;2022-11-20T07:09:29;6.40;99.90
29813;DHT22;16707;48.106;11.548;2022-11-20T07:11:57;7.00;99.90
29813;DHT22;16707;48.106;11.548;2022-11-20T07:14:26;7.20;99.90
29813;DHT22;16707;48.106;11.548;2022-11-20T07:16:56;6.80;99.90
29813;DHT22;16707;48.106;11.548;2022-11-20T07:19:26;6.60;99.90
29813;DHT22;16707;48.106;11.548;2022-11-20T07:21:56;6.60;99.90
29813;DHT22;16707;48.106;11.548;2022-11-20T07:24:22;6.60;99.90
29813;DHT22;16707;48.106;11.548;2022-11-20T07:26:51;6.50;99.90
29813;DHT22;16707;48.106;11.548;2022-11-20T07:29:23;6.50;99.90
29813;DHT22;16707;48.106;11.548;2022-11-20T07:31:50;6.50;99.90
29813;DHT22;16707;48.106;11.548;2022-11-20T07:34:17;6.40;99.90
29813;DHT22;16707;48.106;11.548;2022-11-20T07:36:45;6.40;99.90
29813;DHT22;16707;48.106;11.548;2022-11-20T07:39:15;6.40;99.90
29813;DHT22;16707;48.106;11.548;2022-11-20T07:41:42;6.50;99.90
29813;DHT22;16707;48.106;11.548;2022-11-20T07:44:13;6.50;99.90
29813;DHT22;16707;48.106;11.548;2022-11-20T07:46:42;6.50;99.90
29813;DHT22;16707;48.106;11.548;2022-11-20T07:49:13;6.60;99.90
29813;DHT22;16707;48.106;11.548;2022-11-20T07:51:40;6.60;99.90
29813;DHT22;16707;48.106;11.548;2022-11-20T07:54:09;6.60;99.90
29813;DHT22;16707;48.106;11.548;2022-11-20T07:56:36;6.60;99.90
29813;DHT22;16707;48.106;11.548;2022-11-20T07:59:04;6.70;99.90
29813;DHT22;16707;48.106;11.548;2022-11-20T08:01:37;6.70;99.90
29813;DHT22;16707;48.106;11.548;2022-11-20T08:04:07;6.70;99.90
29813;DHT22;16707;48.106;11.548;2022-11-20T08:06:37;6.70;99.90
29813;DHT22;16707;48.106;11.548;2022-11-20T08:09:03;6.80;99.90
29813;DHT22;16707;48.106;11.548;2022-11-20T08:11:32;6.80;99.90
29813;DHT22;16707;48.106;11.548;2022-11-20T08:14:20;7.00;99.90
29813;DHT22;16707;48.106;11.548;2022-11-20T08:16:49;7.00;99.90
29813;DHT22;16707;48.106;11.548;2022-11-20T08:19:18;7.00;99.90
29813;DHT22;16707;48.106;11.548;2022-11-20T08:21:47;7.10;99.90
29813;DHT22;16707;48.106;11.548;2022-11-20T08:24:17;7.10;99.90
29813;DHT22;16707;48.106;11.548;2022-11-20T08:26:43;7.10;99.90
29813;DHT22;16707;48.106;11.548;2022-11-20T08:29:10;7.10;99.90
29813;DHT22;16707;48.106;11.548;2022-11-20T08:31:43;7.20;99.90
29813;DHT22;16707;48.106;11.548;2022-11-20T08:34:11;7.20;99.90
29813;DHT22;16707;48.106;11.548;2022-11-20T08:36:38;7.20;99.90
29813;DHT22;16707;48.106;11.548;2022-11-20T08:39:05;7.20;99.90
29813;DHT22;16707;48.106;11.548;2022-11-20T08:41:34;7.30;99.90
29813;DHT22;16707;48.106;11.548;2022-11-20T08:44:06;7.40;99.90
29813;DHT22;16707;48.106;11.548;2022-11-20T08:46:38;7.40;99.90
29813;DHT22;16707;48.106;11.548;2022-11-20T08:49:08;7.60;99.90
29813;DHT22;16707;48.106;11.548;2022-11-20T08:51:37;7.60;99.90
29813;DHT22;16707;48.106;11.548;2022-11-20T08:54:05;7.70;99.90
29813;DHT22;16707;48.106;11.548;2022-11-20T08:56:32;7.80;99.90
29813;DHT22;16707;48.106;11.548;2022-11-20T08:58:59;7.90;99.90
29813;DHT22;16707;48.106;11.548;2022-11-20T09:01:29;7.90;99.90
29813;DHT22;16707;48.106;11.548;2022-11-20T09:03:58;7.90;99.90
29813;DHT22;16707;48.106;11.548;2022-11-20T09:06:28;7.90;99.90
29813;DHT22;16707;48.106;11.548;2022-11-20T09:08:56;7.90;99.90
29813;DHT22;16707;48.106;11.548;2022-11-20T09:11:23;8.10;99.90
29813;DHT22;16707;48.106;11.548;2022-11-20T09:13:50;8.10;99.90
29813;DHT22;16707;48.106;11.548;2022-11-20T09:16:17;8.20;99.90
29813;DHT22;16707;48.106;11.548;2022-11-20T09:18:49;8.20;99.90
29813;DHT22;16707;48.106;11.548;2022-11-20T09:21:16;8.00;99.90
29813;DHT22;16707;48.106;11.548;2022-11-20T09:23:46;8.00;99.90
29813;DHT22;16707;48.106;11.548;2022-11-20T09:26:15;8.10;99.90
29813;DHT22;16707;48.106;11.548;2022-11-20T09:28:42;8.10;99.90
29813;DHT22;16707;48.106;11.548;2022-11-20T09:31:21;8.20;99.90
29813;DHT22;16707;48.106;11.548;2022-11-20T09:33:48;8.40;99.90
29813;DHT22;16707;48.106;11.548;2022-11-20T09:36:18;8.60;99.90
29813;DHT22;16707;48.106;11.548;2022-11-20T09:38:50;8.70;99.90
29813;DHT22;16707;48.106;11.548;2022-11-20T09:41:47;8.70;99.90
29813;DHT22;16707;48.106;11.548;2022-11-20T09:44:36;8.80;99.90
29813;DHT22;16707;48.106;11.548;2022-11-20T09:47:11;8.70;99.90
29813;DHT22;16707;48.106;11.548;2022-11-20T09:49:54;8.80;99.90
29813;DHT22;16707;48.106;11.548;2022-11-20T09:52:35;8.80;98.50
29813;DHT22;16707;48.106;11.548;2022-11-20T09:55:03;8.70;98.50
29813;DHT22;16707;48.106;11.548;2022-11-20T09:57:36;8.80;98.60
29813;DHT22;16707;48.106;11.548;2022-11-20T10:00:08;9.10;98.10
29813;DHT22;16707;48.106;11.548;2022-11-20T10:02:42;9.40;97.00
29813;DHT22;16707;48.106;11.548;2022-11-20T10:05:13;9.50;95.50
29813;DHT22;16707;48.106;11.548;2022-11-20T10:07:51;9.80;95.70
29813;DHT22;16707;48.106;11.548;2022-11-20T10:10:33;10.30;94.70
29813;DHT22;16707;48.106;11.548;2022-11-20T10:13:14;10.60;93.50
29813;DHT22;16707;48.106;11.548;2022-11-20T10:15:56;10.60;92.40
29813;DHT22;16707;48.106;11.548;2022-11-20T10:18:39;10.20;92.00
29813;DHT22;16707;48.106;11.548;2022-11-20T10:21:19;10.10;92.40
29813;DHT22;16707;48.106;11.548;2022-11-20T10:24:24;10.10;92.50
29813;DHT22;16707;48.106;11.548;2022-11-20T10:27:06;10.00;92.60
29813;DHT22;16707;48.106;11.548;2022-11-20T10:29:43;10.10;93.30
29813;DHT22;16707;48.106;11.548;2022-11-20T10:32:15;10.30;92.30
29813;DHT22;16707;48.106;11.548;2022-11-20T10:34:48;10.30;92.00
29813;DHT22;16707;48.106;11.548;2022-11-20T10:37:26;10.30;92.20
29813;DHT22;16707;48.106;11.548;2022-11-20T10:39:58;10.40;91.60
29813;DHT22;16707;48.106;11.548;2022-11-20T10:42:34;10.20;91.60
29813;DHT22;16707;48.106;11.548;2022-11-20T10:45:30;10.20;91.60
29813;DHT22;16707;48.106;11.548;2022-11-20T10:48:10;10.20;91.20
29813;DHT22;16707;48.106;11.548;2022-11-20T10:50:55;10.20;91.50
29813;DHT22;16707;48.106;11.548;2022-11-20T10:53:44;9.90;91.10
29813;DHT22;16707;48.106;11.548;2022-11-20T10:56:18;9.60;91.00
29813;DHT22;16707;48.106;11.548;2022-11-20T10:59:19;9.40;92.00
29813;DHT22;16707;48.106;11.548;2022-11-20T11:02:21;9.40;92.80
29813;DHT22;16707;48.106;11.548;2022-11-20T11:04:51;9.40;93.00
29813;DHT22;16707;48.106;11.548;2022-11-20T11:07:23;9.40;92.70
29813;DHT22;16707;48.106;11.548;2022-11-20T11:09:52;9.50;93.00
29813;DHT22;16707;48.106;11.548;2022-11-20T11:12:27;9.50;92.90
29813;DHT22;16707;48.106;11.548;2022-11-20T11:14:58;9.50;92.90
29813;DHT22;16707;48.106;11.548;2022-11-20T11:17:33;9.50;93.10
29813;DHT22;16707;48.106;11.548;2022-11-20T11:20:04;9.50;93.40
29813;DHT22;16707;48.106;11.548;2022-11-20T11:22:42;9.50;93.90
29813;DHT22;16707;48.106;11.548;2022-11-20T11:25:23;9.50;94.20
29813;DHT22;16707;48.106;11.548;2022-11-20T11:27:53;9.60;94.70
29813;DHT22;16707;48.106;11.548;2022-11-20T11:30:24;9.60;94.50
29813;DHT22;16707;48.106;11.548;2022-11-20T11:33:05;9.60;93.70
29813;DHT22;16707;48.106;11.548;2022-11-20T11:35:33;9.40;93.10
29813;DHT22;16707;48.106;11.548;2022-11-20T11:38:14;9.40;93.60
29813;DHT22;16707;48.106;11.548;2022-11-20T11:40:43;9.20;93.50
29813;DHT22;16707;48.106;11.548;2022-11-20T11:43:18;9.10;93.50
29813;DHT22;16707;48.106;11.548;2022-11-20T11:46:21;9.20;93.80
29813;DHT22;16707;48.106;11.548;2022-11-20T11:48:57;9.40;92.90
29813;DHT22;16707;48.106;11.548;2022-11-20T11:51:28;9.50;93.00
29813;DHT22;16707;48.106;11.548;2022-11-20T11:53:58;9.50;92.70
29813;DHT22;16707;48.106;11.548;2022-11-20T11:56:27;9.50;92.20
29813;DHT22;16707;48.106;11.548;2022-11-20T11:58:57;9.70;92.40
29813;DHT22;16707;48.106;11.548;2022-11-20T12:01:36;9.70;92.10
29813;DHT22;16707;48.106;11.548;2022-11-20T12:04:14;9.90;91.80
29813;DHT22;16707;48.106;11.548;2022-11-20T12:06:51;10.00;91.90
29813;DHT22;16707;48.106;11.548;2022-11-20T12:09:24;10.10;92.20
29813;DHT22;16707;48.106;11.548;2022-11-20T12:12:05;9.90;92.40
29813;DHT22;16707;48.106;11.548;2022-11-20T12:14:37;9.40;93.40
29813;DHT22;16707;48.106;11.548;2022-11-20T12:17:09;9.20;94.60
29813;DHT22;16707;48.106;11.548;2022-11-20T12:19:38;8.90;97.40
29813;DHT22;16707;48.106;11.548;2022-11-20T12:22:13;8.80;98.40
29813;DHT22;16707;48.106;11.548;2022-11-20T12:24:50;8.60;99.20
29813;DHT22;16707;48.106;11.548;2022-11-20T12:27:35;8.60;99.90
29813;DHT22;16707;48.106;11.548;2022-11-20T12:30:20;8.50;99.90
29813;DHT22;16707;48.106;11.548;2022-11-20T12:33:08;8.60;99.90
29813;DHT22;16707;48.106;11.548;2022-11-20T12:35:51;8.40;99.90
29813;DHT22;16707;48.106;11.548;2022-11-20T12:38:38;8.30;99.90
29813;DHT22;16707;48.106;11.548;2022-11-20T12:41:15;8.20;99.90
29813;DHT22;16707;48.106;11.548;2022-11-20T12:44:17;8.20;99.90
29813;DHT22;16707;48.106;11.548;2022-11-20T12:47:12;8.20;99.90
29813;DHT22;16707;48.106;11.548;2022-11-20T12:49:47;8.20;99.90
29813;DHT22;16707;48.106;11.548;2022-11-20T12:52:48;8.30;99.90
29813;DHT22;16707;48.106;11.548;2022-11-20T12:55:33;8.30;99.90
29813;DHT22;16707;48.106;11.548;2022-11-20T12:58:10;8.30;99.90
29813;DHT22;16707;48.106;11.548;2022-11-20T13:00:51;8.20;99.90
29813;DHT22;16707;48.106;11.548;2022-11-20T13:03:34;8.20;99.90
29813;DHT22;16707;48.106;11.548;2022-11-20T13:06:12;8.30;99.90
29813;DHT22;16707;48.106;11.548;2022-11-20T13:08:45;8.20;99.90
29813;DHT22;16707;48.106;11.548;2022-11-20T13:11:25;8.20;99.90
29813;DHT22;16707;48.106;11.548;2022-11-20T13:14:07;8.20;99.90
29813;DHT22;16707;48.106;11.548;2022-11-20T13:16:47;8.20;99.90
29813;DHT22;16707;48.106;11.548;2022-11-20T13:19:17;8.30;99.90
29813;DHT22;16707;48.106;11.548;2022-11-20T13:21:45;8.40;99.90
29813;DHT22;16707;48.106;11.548;2022-11-20T13:24:24;8.10;99.90
29813;DHT22;16707;48.106;11.548;2022-11-20T13:27:19;7.80;99.90
29813;DHT22;16707;48.106;11.548;2022-11-20T13:29:58;7.60;99.90
29813;DHT22;16707;48.106;11.548;2022-11-20T13:32:26;7.60;99.90
29813;DHT22;16707;48.106;11.548;2022-11-20T13:34:58;7.60;99.90
29813;DHT22;16707;48.106;11.548;2022-11-20T13:37:35;7.50;99.90
29813;DHT22;16707;48.106;11.548;2022-11-20T13:40:23;7.50;99.90
29813;DHT22;16707;48.106;11.548;2022-11-20T13:43:07;7.40;99.90
29813;DHT22;16707;48.106;11.548;2022-11-20T13:45:38;7.40;99.90
29813;DHT22;16707;48.106;11.548;2022-11-20T13:48:25;7.40;99.90
29813;DHT22;16707;48.106;11.548;2022-11-20T13:54:12;7.50;99.90
29813;DHT22;16707;48.106;11.548;2022-11-20T13:56:51;7.50;99.90
29813;DHT22;16707;48.106;11.548;2022-11-20T13:59:36;7.60;99.90
29813;DHT22;16707;48.106;11.548;2022-11-20T14:02:11;7.60;99.90
29813;DHT22;16707;48.106;11.548;2022-11-20T14:04:45;7.60;99.90
29813;DHT22;16707;48.106;11.548;2022-11-20T14:07:18;7.60;99.90
29813;DHT22;16707;48.106;11.548;2022-11-20T14:09:51;7.60;99.90
29813;DHT22;16707;48.106;11.548;2022-11-20T14:12:23;7.50;99.90
29813;DHT22;16707;48.106;11.548;2022-11-20T14:14:52;7.60;99.90
29813;DHT22;16707;48.106;11.548;2022-11-20T14:17:28;7.60;99.90
29813;DHT22;16707;48.106;11.548;2022-11-20T14:19:58;7.60;99.90
29813;DHT22;16707;48.106;11.548;2022-11-20T14:22:27;7.60;99.90
29813;DHT22;16707;48.106;11.548;2022-11-20T14:25:06;7.60;99.90
29813;DHT22;16707;48.106;11.548;2022-11-20T14:27:50;7.60;99.90
29813;DHT22;16707;48.106;11.548;2022-11-20T14:30:22;7.60;99.90
29813;DHT22;16707;48.106;11.548;2022-11-20T14:33:00;7.60;99.90
29813;DHT22;16707;48.106;11.548;2022-11-20T14:35:29;7.60;99.90
29813;DHT22;16707;48.106;11.548;2022-11-20T14:37:57;7.60;99.90
29813;DHT22;16707;48.106;11.548;2022-11-20T14:40:28;7.60;99.90
29813;DHT22;16707;48.106;11.548;2022-11-20T14:42:58;7.60;99.90
29813;DHT22;16707;48.106;11.548;2022-11-20T14:45:26;7.60;99.90
29813;DHT22;16707;48.106;11.548;2022-11-20T14:48:00;7.60;99.90
29813;DHT22;16707;48.106;11.548;2022-11-20T14:50:28;7.50;99.90
29813;DHT22;16707;48.106;11.548;2022-11-20T14:52:57;7.40;99.90
29813;DHT22;16707;48.106;11.548;2022-11-20T14:55:30;7.40;99.90
29813;DHT22;16707;48.106;11.548;2022-11-20T14:58:02;7.40;99.90
29813;DHT22;16707;48.106;11.548;2022-11-20T15:00:31;7.30;99.90
29813;DHT22;16707;48.106;11.548;2022-11-20T15:02:59;7.20;99.90
29813;DHT22;16707;48.106;11.548;2022-11-20T15:05:43;7.20;99.90
29813;DHT22;16707;48.106;11.548;2022-11-20T15:08:16;7.10;99.90
29813;DHT22;16707;48.106;11.548;2022-11-20T15:10:49;7.10;99.90
29813;DHT22;16707;48.106;11.548;2022-11-20T15:13:25;7.10;99.90
29813;DHT22;16707;48.106;11.548;2022-11-20T15:15:54;7.00;99.90
29813;DHT22;16707;48.106;11.548;2022-11-20T15:18:28;7.00;99.90
29813;DHT22;16707;48.106;11.548;2022-11-20T15:20:55;7.00;99.90
29813;DHT22;16707;48.106;11.548;2022-11-20T15:23:26;7.10;99.90
29813;DHT22;16707;48.106;11.548;2022-11-20T15:25:58;7.00;99.90
29813;DHT22;16707;48.106;11.548;2022-11-20T15:28:35;6.90;99.90
29813;DHT22;16707;48.106;11.548;2022-11-20T15:31:05;6.90;99.90
29813;DHT22;16707;48.106;11.548;2022-11-20T15:33:35;6.90;99.90
29813;DHT22;16707;48.106;11.548;2022-11-20T15:36:02;6.80;99.90
29813;DHT22;16707;48.106;11.548;2022-11-20T15:38:29;6.80;99.90
29813;DHT22;16707;48.106;11.548;2022-11-20T15:40:56;6.70;99.90
29813;DHT22;16707;48.106;11.548;2022-11-20T15:43:23;6.60;99.90
29813;DHT22;16707;48.106;11.548;2022-11-20T15:45:54;6.50;99.90
29813;DHT22;16707;48.106;11.548;2022-11-20T15:48:24;6.40;99.90
29813;DHT22;16707;48.106;11.548;2022-11-20T15:50:59;6.20;99.90
29813;DHT22;16707;48.106;11.548;2022-11-20T15:53:27;6.10;99.90
29813;DHT22;16707;48.106;11.548;2022-11-20T15:55:54;6.00;99.90
29813;DHT22;16707;48.106;11.548;2022-11-20T15:58:21;5.90;99.90
29813;DHT22;16707;48.106;11.548;2022-11-20T16:00:49;5.70;99.90
29813;DHT22;16707;48.106;11.548;2022-11-20T16:03:18;5.60;99.90
29813;DHT22;16707;48.106;11.548;2022-11-20T16:05:46;5.50;99.90
29813;DHT22;16707;48.106;11.548;2022-11-20T16:08:13;5.50;99.90
29813;DHT22;16707;48.106;11.548;2022-11-20T16:10:46;5.40;99.90
29813;DHT22;16707;48.106;11.548;2022-11-20T16:13:14;5.30;99.90